createdAt,value
2018-05-02T00:01:23.122Z,1.67
2018-05-02T00:03:50.636Z,2.00
2018-05-02T00:06:18.177Z,1.50
2018-05-02T00:08:45.707Z,1.60
2018-05-02T00:11:13.319Z,1.63
2018-05-02T00:13:41.588Z,1.53
2018-05-02T00:16:09.922Z,1.40
2018-05-02T00:18:37.432Z,1.70
2018-05-02T00:21:04.933Z,1.90
2018-05-02T00:23:32.483Z,1.30
2018-05-02T00:25:59.998Z,1.70
2018-05-02T00:28:27.548Z,1.57
2018-05-02T00:30:55.048Z,1.70
2018-05-02T00:33:22.594Z,1.87
2018-05-02T00:35:50.104Z,1.67
2018-05-02T00:38:18.399Z,1.60
2018-05-02T00:40:45.908Z,1.70
2018-05-02T00:43:13.452Z,1.90
2018-05-02T00:45:40.971Z,1.67
2018-05-02T00:48:08.524Z,1.67
2018-05-02T00:50:36.036Z,1.80
2018-05-02T00:53:03.580Z,1.67
2018-05-02T00:55:31.860Z,1.70
2018-05-02T00:57:59.420Z,1.90
2018-05-02T01:00:26.915Z,1.63
2018-05-02T01:02:54.474Z,1.93
2018-05-02T01:05:21.975Z,1.87
2018-05-02T01:07:49.482Z,1.83
2018-05-02T01:10:17.037Z,2.07
2018-05-02T01:12:44.532Z,1.73
2018-05-02T01:15:12.095Z,1.97
2018-05-02T01:17:39.595Z,1.77
2018-05-02T01:20:07.155Z,2.07
2018-05-02T01:22:34.655Z,1.73
2018-05-02T01:25:02.199Z,2.00
2018-05-02T01:27:29.703Z,1.80
2018-05-02T01:29:57.239Z,1.93
2018-05-02T01:32:25.507Z,1.80
2018-05-02T01:34:53.043Z,1.53
2018-05-02T01:37:20.555Z,2.07
2018-05-02T01:39:48.097Z,1.77
2018-05-02T01:42:15.603Z,2.07
2018-05-02T01:44:43.152Z,2.00
2018-05-02T01:47:10.656Z,1.93
2018-05-02T01:49:38.199Z,1.80
2018-05-02T01:52:05.704Z,1.90
2018-05-02T01:54:33.244Z,2.03
2018-05-02T01:57:00.812Z,1.80
2018-05-02T01:59:28.319Z,1.90
2018-05-02T02:01:55.852Z,1.93
2018-05-02T02:04:23.371Z,1.90
2018-05-02T02:06:50.912Z,1.90
2018-05-02T02:09:18.406Z,2.20
2018-05-02T02:11:45.944Z,1.87
2018-05-02T02:14:13.450Z,2.00
2018-05-02T02:16:41.002Z,2.27
2018-05-02T02:19:08.508Z,2.40
2018-05-02T02:21:36.051Z,2.30
2018-05-02T02:24:03.553Z,2.47
2018-05-02T02:26:31.088Z,2.23
2018-05-02T02:28:58.616Z,2.30
2018-05-02T02:31:26.160Z,1.97
2018-05-02T02:33:54.483Z,2.10
2018-05-02T02:36:22.002Z,2.20
2018-05-02T02:38:49.516Z,2.13
2018-05-02T02:41:17.078Z,2.23
2018-05-02T02:43:44.600Z,2.53
2018-05-02T02:46:12.159Z,2.43
2018-05-02T02:48:39.671Z,2.63
2018-05-02T02:51:07.226Z,2.50
2018-05-02T02:53:34.726Z,2.10
2018-05-02T02:56:03.004Z,2.33
2018-05-02T02:58:30.552Z,2.63
2018-05-02T03:00:58.071Z,2.40
2018-05-02T03:03:25.609Z,2.10
2018-05-02T03:05:53.107Z,2.50
2018-05-02T03:08:20.645Z,2.20
2018-05-02T03:10:48.142Z,2.30
2018-05-02T03:13:16.440Z,2.60
2018-05-02T03:15:43.996Z,2.27
2018-05-02T03:18:11.535Z,2.50
2018-05-02T03:20:39.055Z,2.40
2018-05-02T03:23:06.610Z,2.30
2018-05-02T03:25:34.897Z,2.73
2018-05-02T03:28:02.529Z,2.30
2018-05-02T03:30:30.031Z,2.40
2018-05-02T03:32:57.571Z,2.80
2018-05-02T03:35:25.083Z,3.30
2018-05-02T03:37:52.631Z,2.90
2018-05-02T03:40:20.919Z,3.03
2018-05-02T03:42:49.232Z,2.87
2018-05-02T03:45:16.741Z,2.87
2018-05-02T03:47:44.311Z,3.10
2018-05-02T03:50:12.592Z,3.00
2018-05-02T03:52:40.871Z,3.00
2018-05-02T03:55:09.179Z,2.87
2018-05-02T03:57:36.695Z,3.43
2018-05-02T04:00:15.972Z,2.70
2018-05-02T04:03:06.163Z,3.10
2018-05-02T04:05:45.332Z,2.60
2018-05-02T04:08:12.875Z,2.97
2018-05-02T04:10:40.384Z,2.80
2018-05-02T04:13:08.651Z,2.50
2018-05-02T04:15:36.967Z,3.00
2018-05-02T04:18:04.494Z,3.90
2018-05-02T04:20:32.038Z,2.80
2018-05-02T04:23:00.316Z,3.10
2018-05-02T04:25:27.871Z,3.10
2018-05-02T04:27:55.383Z,2.90
2018-05-02T04:30:22.916Z,3.00
2018-05-02T04:32:50.432Z,3.43
2018-05-02T04:35:17.975Z,2.80
2018-05-02T04:37:45.491Z,3.60
2018-05-02T04:40:13.023Z,3.17
2018-05-02T04:42:40.535Z,2.90
2018-05-02T04:45:08.144Z,3.27
2018-05-02T04:47:35.652Z,3.60
2018-05-02T04:50:03.159Z,4.20
2018-05-02T04:52:30.714Z,3.93
2018-05-02T04:54:58.249Z,4.17
2018-05-02T04:57:25.797Z,3.77
2018-05-02T04:59:53.311Z,3.17
2018-05-02T05:02:20.879Z,4.10
2018-05-02T05:04:49.165Z,3.60
2018-05-02T05:07:16.749Z,3.50
2018-05-02T05:09:44.270Z,3.80
2018-05-02T05:12:11.838Z,3.50
2018-05-02T05:14:39.334Z,3.57
2018-05-02T05:17:06.877Z,3.83
2018-05-02T05:19:34.392Z,3.53
2018-05-02T05:22:01.933Z,3.80
2018-05-02T05:24:29.439Z,4.40
2018-05-02T05:26:57.002Z,3.90
2018-05-02T05:29:24.523Z,4.47
2018-05-02T05:31:52.064Z,4.47
2018-05-02T05:34:19.563Z,4.83
2018-05-02T05:36:47.071Z,4.57
2018-05-02T05:39:15.391Z,4.57
2018-05-02T05:41:43.663Z,5.10
2018-05-02T05:44:11.955Z,5.67
2018-05-02T05:46:39.463Z,5.37
2018-05-02T05:49:07.788Z,5.13
2018-05-02T05:51:35.311Z,5.43
2018-05-02T05:54:02.879Z,5.57
2018-05-02T05:56:30.391Z,4.90
2018-05-02T05:58:57.961Z,5.90
2018-05-02T06:01:25.467Z,4.87
2018-05-02T06:03:53.044Z,4.83
2018-05-02T06:06:21.328Z,5.03
2018-05-02T06:08:48.871Z,4.60
2018-05-02T06:11:16.383Z,4.60
2018-05-02T06:13:43.923Z,5.30
2018-05-02T06:16:11.440Z,5.00
2018-05-02T06:18:38.999Z,4.63
2018-05-02T06:21:06.512Z,4.90
2018-05-02T06:23:34.940Z,4.90
2018-05-02T06:26:02.492Z,4.43
2018-05-02T06:28:30.057Z,4.70
2018-05-02T06:30:58.402Z,4.63
2018-05-02T06:33:25.945Z,4.47
2018-05-02T06:35:53.520Z,4.40
2018-05-02T06:38:21.090Z,4.60
2018-05-02T06:40:49.459Z,5.10
2018-05-02T06:43:17.020Z,5.27
2018-05-02T06:45:44.642Z,5.03
2018-05-02T06:48:12.165Z,5.17
2018-05-02T06:50:39.744Z,5.40
2018-05-02T06:53:07.328Z,5.40
2018-05-02T06:55:34.952Z,6.00
2018-05-02T06:58:02.866Z,5.03
2018-05-02T07:00:30.434Z,5.70
2018-05-02T07:02:57.988Z,4.97
2018-05-02T07:05:25.653Z,4.60
2018-05-02T07:07:53.252Z,5.50
2018-05-02T07:10:20.878Z,5.87
2018-05-02T07:12:48.440Z,5.33
2018-05-02T07:15:16.024Z,4.70
2018-05-02T07:17:43.620Z,4.83
2018-05-02T07:20:11.215Z,5.30
2018-05-02T07:22:38.791Z,5.73
2018-05-02T07:25:06.328Z,5.70
2018-05-02T07:27:33.939Z,5.37
2018-05-02T07:30:01.495Z,5.13
2018-05-02T07:32:29.168Z,6.30
2018-05-02T07:34:56.684Z,6.37
2018-05-02T07:37:24.232Z,5.43
2018-05-02T07:39:52.638Z,5.20
2018-05-02T07:42:20.272Z,4.77
2018-05-02T07:44:47.840Z,5.30
2018-05-02T07:47:15.367Z,5.50
2018-05-02T07:49:42.996Z,5.60
2018-05-02T07:52:10.597Z,5.53
2018-05-02T07:54:38.176Z,5.53
2018-05-02T07:57:05.786Z,4.83
2018-05-02T07:59:33.360Z,5.20
2018-05-02T08:02:00.962Z,4.90
2018-05-02T08:04:28.522Z,5.23
2018-05-02T08:06:56.175Z,5.33
2018-05-02T08:09:23.756Z,4.67
2018-05-02T08:11:51.392Z,4.53
2018-05-02T08:14:19.006Z,5.03
2018-05-02T08:16:46.550Z,5.80
2018-05-02T08:19:14.121Z,5.13
2018-05-02T08:21:41.786Z,4.97
2018-05-02T08:24:09.393Z,4.50
2018-05-02T08:26:36.927Z,4.77
2018-05-02T08:29:05.324Z,4.60
2018-05-02T08:31:32.832Z,4.83
2018-05-02T08:34:01.122Z,4.60
2018-05-02T08:36:28.726Z,5.00
2018-05-02T08:38:57.073Z,5.13
2018-05-02T08:41:24.649Z,4.60
2018-05-02T08:43:52.191Z,4.40
2018-05-02T08:46:19.782Z,4.67
2018-05-02T08:48:47.343Z,4.33
2018-05-02T08:51:14.972Z,4.47
2018-05-02T08:53:43.282Z,4.60
2018-05-02T08:56:10.852Z,4.30
2018-05-02T08:58:38.396Z,4.53
2018-05-02T09:01:06.004Z,4.20
2018-05-02T09:03:33.573Z,4.40
2018-05-02T09:06:01.201Z,4.23
2018-05-02T09:08:28.819Z,4.97
2018-05-02T09:10:57.164Z,4.93
2018-05-02T09:13:25.507Z,4.27
2018-05-02T09:15:53.166Z,4.63
2018-05-02T09:18:20.724Z,4.63
2018-05-02T09:20:48.262Z,4.33
2018-05-02T09:23:16.644Z,4.47
2018-05-02T09:25:44.222Z,5.23
2018-05-02T09:28:11.791Z,4.93
2018-05-02T09:30:39.319Z,4.23
2018-05-02T09:33:06.894Z,4.97
2018-05-02T09:35:34.462Z,4.60
2018-05-02T09:38:02.040Z,4.83
2018-05-02T09:40:29.619Z,5.10
2018-05-02T09:42:57.305Z,5.27
2018-05-02T09:45:24.859Z,6.50
2018-05-02T09:47:52.420Z,5.33
2018-05-02T09:50:19.962Z,5.43
2018-05-02T09:52:47.708Z,5.83
2018-05-02T09:55:15.233Z,5.67
2018-05-02T09:57:42.815Z,5.67
2018-05-02T10:00:10.346Z,5.50
2018-05-02T10:02:38.049Z,5.37
2018-05-02T10:05:05.575Z,5.30
2018-05-02T10:07:33.117Z,5.97
2018-05-02T10:10:00.728Z,5.50
2018-05-02T10:12:28.277Z,6.23
2018-05-02T10:14:55.955Z,5.60
2018-05-02T10:17:23.511Z,6.27
2018-05-02T10:19:51.091Z,5.57
2018-05-02T10:22:18.666Z,5.43
2018-05-02T10:24:46.257Z,6.27
2018-05-02T10:27:14.533Z,5.67
2018-05-02T10:29:42.880Z,5.47
2018-05-02T10:32:13.003Z,6.03
2018-05-02T10:34:40.647Z,5.77
2018-05-02T10:37:08.214Z,6.17
2018-05-02T10:39:36.564Z,5.40
2018-05-02T10:42:04.171Z,5.73
2018-05-02T10:44:32.533Z,5.57
2018-05-02T10:47:00.051Z,5.77
2018-05-02T10:49:27.613Z,6.13
2018-05-02T10:51:55.191Z,6.00
2018-05-02T10:54:22.758Z,5.60
2018-05-02T10:56:50.336Z,5.20
2018-05-02T10:59:17.863Z,5.60
2018-05-02T11:01:45.446Z,6.00
2018-05-02T11:04:12.959Z,5.90
2018-05-02T11:06:40.559Z,5.70
2018-05-02T11:09:08.852Z,5.87
2018-05-02T11:11:36.413Z,6.00
2018-05-02T11:14:03.964Z,5.87
2018-05-02T11:16:32.323Z,6.07
2018-05-02T11:19:00.615Z,6.37
2018-05-02T11:21:28.196Z,6.40
2018-05-02T11:23:55.772Z,6.70
2018-05-02T11:26:23.360Z,6.07
2018-05-02T11:28:50.868Z,6.60
2018-05-02T11:31:18.408Z,6.32
2018-05-02T11:33:45.981Z,6.28
2018-05-02T11:36:13.515Z,6.68
2018-05-02T11:38:41.058Z,6.03
2018-05-02T11:41:08.616Z,7.03
2018-05-02T11:43:36.189Z,6.32
2018-05-02T11:46:03.867Z,6.47
2018-05-02T11:48:31.462Z,6.07
2018-05-02T11:50:59.028Z,6.30
2018-05-02T11:53:26.659Z,6.37
2018-05-02T11:55:54.239Z,6.97
2018-05-02T11:58:21.795Z,6.57
2018-05-02T12:00:50.093Z,6.72
2018-05-02T12:03:18.433Z,6.55
2018-05-02T12:05:45.988Z,5.70
2018-05-02T12:08:13.573Z,6.32
2018-05-02T12:10:41.110Z,6.55
2018-05-02T12:13:08.695Z,6.53
2018-05-02T12:15:37.009Z,6.20
2018-05-02T12:18:04.537Z,6.30
2018-05-02T12:20:32.097Z,6.82
2018-05-02T12:23:00.371Z,6.07
2018-05-02T12:25:28.773Z,6.70
2018-05-02T12:27:56.360Z,6.22
2018-05-02T12:30:23.919Z,6.65
2018-05-02T12:32:51.446Z,6.32
2018-05-02T12:35:19.794Z,6.75
2018-05-02T12:37:47.381Z,6.22
2018-05-02T12:40:14.956Z,6.97
2018-05-02T12:42:42.485Z,6.62
2018-05-02T12:45:10.839Z,6.20
2018-05-02T12:47:38.462Z,6.43
2018-05-02T12:50:06.051Z,6.55
2018-05-02T12:52:33.608Z,6.25
2018-05-02T12:55:01.221Z,6.75
2018-05-02T12:57:28.798Z,7.00
2018-05-02T12:59:56.377Z,6.55
2018-05-02T13:02:23.932Z,6.53
2018-05-02T13:04:51.506Z,7.37
2018-05-02T13:07:19.064Z,6.47
2018-05-02T13:09:47.486Z,7.18
2018-05-02T13:12:15.085Z,7.00
2018-05-02T13:14:42.635Z,6.47
2018-05-02T13:17:10.241Z,6.82
2018-05-02T13:19:37.789Z,6.80
2018-05-02T13:22:05.377Z,6.90
2018-05-02T13:24:33.731Z,7.20
2018-05-02T13:27:01.277Z,7.07
2018-05-02T13:29:28.783Z,7.40
2018-05-02T13:31:56.323Z,7.05
2018-05-02T13:34:24.589Z,6.77
2018-05-02T13:36:52.115Z,7.40
2018-05-02T13:39:20.401Z,7.97
2018-05-02T13:41:47.948Z,7.53
2018-05-02T13:44:15.457Z,7.27
2018-05-02T13:46:43.003Z,7.57
2018-05-02T13:49:10.517Z,7.80
2018-05-02T13:51:38.825Z,8.45
2018-05-02T13:54:06.359Z,7.55
2018-05-02T13:56:33.931Z,6.93
2018-05-02T13:59:01.435Z,7.80
2018-05-02T14:01:28.933Z,7.80
2018-05-02T14:03:56.485Z,7.40
2018-05-02T14:06:24.761Z,7.50
2018-05-02T14:08:53.071Z,7.72
2018-05-02T14:11:20.587Z,7.53
2018-05-02T14:13:48.169Z,8.38
2018-05-02T14:16:15.688Z,7.00
2018-05-02T14:18:43.249Z,8.68
2018-05-02T14:21:10.776Z,8.00
2018-05-02T14:23:38.377Z,8.13
2018-05-02T14:26:05.986Z,7.80
2018-05-02T14:28:33.589Z,7.23
2018-05-02T14:31:01.144Z,7.57
2018-05-02T14:33:28.713Z,7.67
2018-05-02T14:35:57.061Z,7.90
2018-05-02T14:38:24.779Z,8.30
2018-05-02T14:40:52.322Z,8.83
2018-05-02T14:43:20.017Z,8.33
2018-05-02T14:45:47.585Z,8.90
2018-05-02T14:48:15.123Z,8.73
2018-05-02T14:50:42.714Z,8.87
2018-05-02T14:53:10.299Z,8.37
2018-05-02T14:55:37.852Z,9.00
2018-05-02T14:58:05.458Z,7.93
2018-05-02T15:00:33.023Z,8.97
2018-05-02T15:03:01.337Z,8.63
2018-05-02T15:05:28.987Z,8.33
2018-05-02T15:07:56.538Z,8.07
2018-05-02T15:10:24.144Z,8.23
2018-05-02T15:12:51.691Z,8.37
2018-05-02T15:15:19.299Z,8.63
2018-05-02T15:17:47.683Z,8.20
2018-05-02T15:20:15.280Z,8.03
2018-05-02T15:22:42.837Z,7.77
2018-05-02T15:25:10.492Z,7.90
2018-05-02T15:27:38.073Z,8.20
2018-05-02T15:30:05.680Z,8.27
2018-05-02T15:32:33.322Z,7.93
2018-05-02T15:35:00.946Z,8.57
2018-05-02T15:37:28.534Z,7.93
2018-05-02T15:39:56.132Z,7.33
2018-05-02T15:42:23.742Z,7.87
2018-05-02T15:44:51.328Z,8.67
2018-05-02T15:47:18.953Z,8.27
2018-05-02T15:49:46.576Z,7.87
2018-05-02T15:52:15.283Z,7.87
2018-05-02T15:54:42.887Z,8.07
2018-05-02T15:57:10.474Z,8.10
2018-05-02T15:59:38.057Z,8.03
2018-05-02T16:02:05.705Z,8.43
2018-05-02T16:04:33.999Z,7.77
2018-05-02T16:07:01.638Z,8.60
2018-05-02T16:09:29.729Z,8.73
2018-05-02T16:11:58.034Z,7.63
2018-05-02T16:14:25.591Z,8.50
2018-05-02T16:16:53.165Z,8.00
2018-05-02T16:19:20.763Z,7.60
2018-05-02T16:21:49.151Z,8.87
2018-05-02T16:24:16.714Z,8.13
2018-05-02T16:26:45.051Z,8.23
2018-05-02T16:29:12.555Z,8.90
2018-05-02T16:31:40.143Z,8.90
2018-05-02T16:34:07.715Z,9.00
2018-05-02T16:36:35.232Z,9.20
2018-05-02T16:39:03.564Z,9.63
2018-05-02T16:41:31.080Z,9.90
2018-05-02T16:43:58.632Z,10.27
2018-05-02T16:46:26.169Z,10.73
2018-05-02T16:48:53.743Z,12.07
2018-05-02T16:51:21.265Z,11.73
2018-05-02T16:53:49.056Z,11.77
2018-05-02T16:56:16.594Z,11.13
2018-05-02T16:58:44.139Z,11.57
2018-05-02T17:01:11.640Z,11.77
2018-05-02T17:03:39.973Z,12.27
2018-05-02T17:06:08.251Z,11.33
2018-05-02T17:08:35.810Z,10.23
2018-05-02T17:11:03.333Z,10.00
2018-05-02T17:13:30.856Z,10.60
2018-05-02T17:15:58.405Z,10.53
2018-05-02T17:18:25.904Z,10.07
2018-05-02T17:20:53.453Z,11.00
2018-05-02T17:23:21.738Z,11.10
2018-05-02T17:25:49.279Z,10.67
2018-05-02T17:28:16.795Z,10.83
2018-05-02T17:30:44.339Z,11.37
2018-05-02T17:33:11.852Z,10.80
2018-05-02T17:35:39.437Z,11.60
2018-05-02T17:38:06.965Z,10.70
2018-05-02T17:40:34.495Z,11.83
2018-05-02T17:43:02.019Z,11.43
2018-05-02T17:45:29.579Z,11.73
2018-05-02T17:47:57.093Z,11.37
2018-05-02T17:50:24.640Z,11.10
2018-05-02T17:52:53.025Z,11.77
2018-05-02T17:55:20.502Z,11.10
2018-05-02T17:57:48.069Z,10.73
2018-05-02T18:00:15.571Z,11.67
2018-05-02T18:02:43.117Z,11.57
2018-05-02T18:05:10.640Z,12.83
2018-05-02T18:07:38.204Z,13.07
2018-05-02T18:10:05.721Z,12.20
2018-05-02T18:12:33.276Z,11.77
2018-05-02T18:15:00.802Z,13.27
2018-05-02T18:17:28.370Z,12.67
2018-05-02T18:19:55.914Z,12.83
2018-05-02T18:22:23.481Z,11.90
2018-05-02T18:24:51.773Z,13.33
2018-05-02T18:27:19.306Z,12.43
2018-05-02T18:29:46.869Z,11.73
2018-05-02T18:32:15.169Z,11.53
2018-05-02T18:34:42.736Z,10.43
2018-05-02T18:37:10.248Z,9.67
2018-05-02T18:39:37.869Z,9.70
2018-05-02T18:42:05.401Z,8.63
2018-05-02T18:44:32.949Z,8.97
2018-05-02T18:47:01.311Z,8.43
2018-05-02T18:49:28.844Z,8.73
2018-05-02T18:51:56.379Z,9.20
2018-05-02T18:54:23.946Z,7.80
2018-05-02T18:56:51.470Z,8.60
2018-05-02T18:59:19.073Z,8.60
2018-05-02T19:01:46.645Z,8.03
2018-05-02T19:04:15.477Z,8.53
2018-05-02T19:06:43.005Z,9.23
2018-05-02T19:09:10.587Z,8.60
2018-05-02T19:11:38.108Z,10.40
2018-05-02T19:14:05.683Z,10.20
2018-05-02T19:16:33.187Z,10.13
2018-05-02T19:19:06.417Z,11.07
2018-05-02T19:21:33.943Z,10.83
2018-05-02T19:24:01.545Z,11.67
2018-05-02T19:26:34.817Z,11.63
2018-05-02T19:29:02.406Z,12.30
2018-05-02T19:31:35.569Z,13.17
2018-05-02T19:34:03.157Z,13.00
2018-05-02T19:36:30.714Z,12.20
2018-05-02T19:38:58.230Z,12.73
2018-05-02T19:41:31.360Z,14.87
2018-05-02T19:44:04.334Z,12.40
2018-05-02T19:46:31.921Z,11.83
2018-05-02T19:48:59.451Z,10.00
2018-05-02T19:51:32.694Z,9.13
2018-05-02T19:54:00.987Z,8.47
2018-05-02T19:56:28.901Z,8.30
2018-05-02T19:58:56.422Z,8.97
2018-05-02T20:01:29.571Z,9.53
2018-05-02T20:03:57.089Z,10.17
2018-05-02T20:06:24.696Z,8.90
2018-05-02T20:08:57.796Z,9.90
2018-05-02T20:11:31.809Z,9.93
2018-05-02T20:14:11.506Z,11.63
2018-05-02T20:16:39.847Z,9.63
2018-05-02T20:19:07.397Z,10.17
2018-05-02T20:21:34.959Z,8.97
2018-05-02T20:24:03.251Z,8.13
2018-05-02T20:26:30.796Z,8.53
2018-05-02T20:28:58.327Z,9.87
2018-05-02T20:31:25.891Z,10.70
2018-05-02T20:33:53.404Z,10.73
2018-05-02T20:36:20.921Z,9.30
2018-05-02T20:38:49.231Z,9.30
2018-05-02T20:41:16.771Z,8.27
2018-05-02T20:43:45.080Z,9.33
2018-05-02T20:46:12.884Z,9.90
2018-05-02T20:48:40.436Z,10.80
2018-05-02T20:51:08.164Z,10.13
2018-05-02T20:53:35.742Z,9.23
2018-05-02T20:56:03.250Z,9.17
2018-05-02T20:58:31.563Z,9.00
2018-05-02T21:00:59.085Z,9.63
2018-05-02T21:03:27.410Z,8.93
2018-05-02T21:05:54.920Z,9.07
2018-05-02T21:08:23.283Z,10.23
2018-05-02T21:10:50.814Z,8.93
2018-05-02T21:13:19.114Z,8.77
2018-05-02T21:15:46.614Z,9.73
2018-05-02T21:18:15.153Z,9.33
2018-05-02T21:20:43.910Z,8.70
2018-05-02T21:23:11.435Z,8.50
2018-05-02T21:25:38.974Z,8.10
2018-05-02T21:28:06.486Z,8.53
2018-05-02T21:30:34.800Z,8.20
2018-05-02T21:33:02.342Z,8.20
2018-05-02T21:35:29.916Z,8.07
2018-05-02T21:37:57.442Z,8.47
2018-05-02T21:40:24.991Z,8.63
2018-05-02T21:42:52.494Z,8.67
2018-05-02T21:45:20.039Z,7.70
2018-05-02T21:47:47.637Z,8.80
2018-05-02T21:50:15.102Z,8.67
2018-05-02T21:52:43.381Z,8.63
2018-05-02T21:55:10.936Z,7.90
2018-05-02T21:57:38.479Z,8.43
2018-05-02T22:00:06.756Z,8.10
2018-05-02T22:02:34.296Z,8.50
2018-05-02T22:05:01.815Z,8.53
2018-05-02T22:07:29.376Z,9.40
2018-05-02T22:09:56.892Z,8.37
2018-05-02T22:12:24.432Z,9.07
2018-05-02T22:14:51.943Z,8.73
2018-05-02T22:17:19.479Z,8.63
2018-05-02T22:19:46.997Z,8.83
2018-05-02T22:22:14.545Z,9.67
2018-05-02T22:24:42.052Z,9.90
2018-05-02T22:27:09.600Z,8.80
2018-05-02T22:29:37.120Z,9.27
2018-05-02T22:32:04.684Z,10.20
2018-05-02T22:34:32.963Z,10.43
2018-05-02T22:37:00.484Z,10.43
2018-05-02T22:39:28.028Z,10.17
2018-05-02T22:41:55.536Z,10.40
2018-05-02T22:44:23.084Z,10.20
2018-05-02T22:46:50.596Z,9.57
2018-05-02T22:49:18.160Z,9.80
2018-05-02T22:51:45.776Z,9.30
2018-05-02T22:54:13.332Z,9.83
2018-05-02T22:56:40.858Z,10.10
2018-05-02T22:59:08.409Z,10.17
2018-05-02T23:01:36.682Z,9.97
2018-05-02T23:04:04.980Z,10.07
2018-05-02T23:06:32.495Z,11.20
2018-05-02T23:09:00.026Z,9.30
2018-05-02T23:11:27.549Z,10.70
2018-05-02T23:13:55.084Z,10.97
2018-05-02T23:16:23.382Z,10.77
2018-05-02T23:18:50.956Z,10.47
2018-05-02T23:21:18.460Z,10.30
2018-05-02T23:23:45.972Z,10.53
2018-05-02T23:26:13.511Z,10.77
2018-05-02T23:28:41.035Z,10.27
2018-05-02T23:31:08.591Z,10.70
2018-05-02T23:33:36.135Z,10.90
2018-05-02T23:36:03.700Z,10.63
2018-05-02T23:38:31.212Z,10.50
2018-05-02T23:40:58.754Z,10.30
2018-05-02T23:43:26.267Z,11.17
2018-05-02T23:45:53.815Z,11.60
2018-05-02T23:48:21.336Z,11.73
2018-05-02T23:50:48.902Z,10.70
2018-05-02T23:53:17.179Z,10.70
2018-05-02T23:55:45.504Z,11.43
2018-05-02T23:58:13.019Z,10.87
